createdAt,value
2024-03-12T00:00:03.521Z,96.54545454545455
2024-03-12T00:05:03.509Z,96.54545454545455
2024-03-12T00:10:03.257Z,96.54545454545455
2024-03-12T00:15:02.953Z,96.54545454545455
2024-03-12T00:20:02.560Z,96.72727272727273
2024-03-12T00:25:03.476Z,96.63636363636364
2024-03-12T00:30:03.062Z,96.54545454545455
2024-03-12T00:35:02.613Z,96.54545454545455
2024-03-12T00:40:03.288Z,96.45454545454545
2024-03-12T00:45:03.099Z,96.54545454545455
2024-03-12T00:50:02.624Z,96.45454545454545
2024-03-12T00:55:03.221Z,96.45454545454545
2024-03-12T01:00:02.826Z,96.54545454545455
2024-03-12T01:05:03.270Z,96.54545454545455
2024-03-12T01:10:02.814Z,96.54545454545455
2024-03-12T01:15:02.464Z,96.36363636363636
2024-03-12T01:20:03.080Z,96.36363636363636
2024-03-12T01:25:02.861Z,96.27272727272727
2024-03-12T01:30:02.483Z,96.27272727272727
2024-03-12T01:35:03.228Z,96.27272727272727
2024-03-12T01:40:02.784Z,96.36363636363636
2024-03-12T01:45:03.388Z,96.36363636363636
2024-03-12T01:50:03.033Z,96.36363636363636
2024-03-12T01:55:02.582Z,96.27272727272727
2024-03-12T02:00:04.497Z,96.27272727272727
2024-03-12T02:05:02.949Z,96.27272727272727
2024-03-12T02:10:02.640Z,96.27272727272727
2024-03-12T02:15:03.336Z,96.0909090909091
2024-03-12T02:20:02.992Z,96
2024-03-12T02:25:02.651Z,96
2024-03-12T02:30:03.286Z,96
2024-03-12T02:35:02.823Z,95.9090909090909
2024-03-12T02:40:03.342Z,95.63636363636364
2024-03-12T02:45:03.037Z,95.63636363636364
2024-03-12T02:50:02.635Z,95.72727272727273
2024-03-12T02:55:03.235Z,96
2024-03-12T03:00:02.800Z,95.9090909090909
2024-03-12T03:05:03.359Z,95.9090909090909
2024-03-12T03:10:02.939Z,95.9090909090909
2024-03-12T03:15:02.453Z,95.9090909090909
2024-03-12T03:20:03.098Z,95.9090909090909
2024-03-12T03:25:02.802Z,96.0909090909091
2024-03-12T03:30:02.481Z,95.9090909090909
2024-03-12T03:35:02.963Z,95.9090909090909
2024-03-12T03:40:02.663Z,95.9090909090909
2024-03-12T03:45:03.293Z,95.9090909090909
2024-03-12T03:50:02.801Z,96
2024-03-12T03:55:03.442Z,96.0909090909091
2024-03-12T04:00:03.013Z,96.0909090909091
2024-03-12T04:05:02.485Z,96.18181818181819
2024-03-12T04:10:03.581Z,96.0909090909091
2024-03-12T04:15:03.433Z,96.0909090909091
2024-03-12T04:20:02.973Z,96.0909090909091
2024-03-12T04:25:02.612Z,96.0909090909091
2024-03-12T04:30:03.241Z,96.18181818181819
2024-03-12T04:35:02.680Z,96.0909090909091
2024-03-12T04:40:03.477Z,96.0909090909091
2024-03-12T04:45:03.085Z,96.0909090909091
2024-03-12T04:50:02.523Z,96
2024-03-12T04:55:03.139Z,96
2024-03-12T05:00:02.733Z,95.9090909090909
2024-03-12T05:05:03.293Z,95.9090909090909
2024-03-12T05:10:02.815Z,95.72727272727273
2024-03-12T05:15:03.426Z,95.63636363636364
2024-03-12T05:20:02.930Z,95.72727272727273
2024-03-12T05:25:02.522Z,95.9090909090909
2024-03-12T05:30:03.146Z,95.72727272727273
2024-03-12T05:35:02.687Z,95.72727272727273
2024-03-12T05:40:03.251Z,95.72727272727273
2024-03-12T05:45:02.856Z,95.72727272727273
2024-03-12T05:50:03.534Z,95.9090909090909
2024-03-12T05:55:03.348Z,96.0909090909091
2024-03-12T06:00:02.927Z,96
2024-03-12T06:05:02.435Z,96
2024-03-12T06:10:03.013Z,96.0909090909091
2024-03-12T06:15:02.753Z,95.9090909090909
2024-03-12T06:20:03.247Z,96
2024-03-12T06:25:02.861Z,96.0909090909091
2024-03-12T06:30:02.673Z,96.0909090909091
2024-03-12T06:35:03.395Z,96
2024-03-12T06:40:02.989Z,96
2024-03-12T06:45:02.530Z,96
2024-03-12T06:50:04.221Z,96.18181818181819
2024-03-12T06:55:02.903Z,96.18181818181819
2024-03-12T07:00:02.415Z,96.27272727272727
2024-03-12T07:05:03.110Z,96.36363636363636
2024-03-12T07:10:02.966Z,96.27272727272727
2024-03-12T07:15:02.443Z,96.36363636363636
2024-03-12T07:20:03.021Z,96.45454545454545
2024-03-12T07:25:02.570Z,96.54545454545455
2024-03-12T07:30:03.084Z,96.45454545454545
2024-03-12T07:35:02.539Z,96.36363636363636
2024-03-12T07:40:03.145Z,96.18181818181819
2024-03-12T07:45:02.723Z,96
2024-03-12T07:50:03.156Z,96.27272727272727
2024-03-12T07:55:02.711Z,96.36363636363636
2024-03-12T08:00:03.169Z,96.36363636363636
2024-03-12T08:05:02.794Z,96.45454545454545
2024-03-12T08:10:03.436Z,96.72727272727273
2024-03-12T08:15:03.713Z,96.72727272727273
2024-03-12T08:20:03.354Z,96.72727272727273
2024-03-12T08:25:02.886Z,96.63636363636364
2024-03-12T08:30:02.434Z,96.54545454545455
2024-03-12T08:35:02.960Z,96.45454545454545
2024-03-12T08:40:02.501Z,96.54545454545455
2024-03-12T08:45:03.317Z,96.9090909090909
2024-03-12T08:50:02.824Z,96.81818181818181
2024-03-12T08:55:03.398Z,96.63636363636364
2024-03-12T09:00:03.111Z,96.9090909090909
2024-03-12T09:05:02.676Z,96.9090909090909
2024-03-12T09:10:03.393Z,96.9090909090909
2024-03-12T09:15:02.962Z,97
2024-03-12T09:20:02.496Z,97
2024-03-12T09:25:03.024Z,97.27272727272727
2024-03-12T09:30:02.653Z,97
2024-03-12T09:35:03.197Z,96.63636363636364
2024-03-12T09:40:03.370Z,96.54545454545455
2024-03-12T09:45:02.978Z,96.18181818181819
2024-03-12T09:50:04.932Z,95.9090909090909
2024-03-12T09:55:02.823Z,96
2024-03-12T10:00:02.337Z,96.0909090909091
2024-03-12T10:05:03.017Z,96.0909090909091
2024-03-12T10:10:02.628Z,96.0909090909091
2024-03-12T10:15:03.407Z,96.0909090909091
2024-03-12T10:20:04.542Z,96.54545454545455
2024-03-12T10:25:02.635Z,96.9090909090909
2024-03-12T10:30:03.184Z,97.0909090909091
2024-03-12T10:35:02.694Z,97.54545454545455
2024-03-12T10:40:03.327Z,97.36363636363636
2024-03-12T10:45:02.784Z,96.81818181818181
2024-03-12T10:50:03.821Z,96.18181818181819
2024-03-12T10:55:09.750Z,96.27272727272727
2024-03-12T11:00:03.300Z,96.63636363636364
2024-03-12T11:05:04.124Z,97.27272727272727
2024-03-12T11:10:02.768Z,97.9090909090909
2024-03-12T11:15:05.698Z,98.18181818181819
2024-03-12T11:20:03.930Z,98.18181818181819
2024-03-12T11:25:03.641Z,97.81818181818181
2024-03-12T11:30:03.815Z,97.63636363636364
2024-03-12T11:35:04.003Z,97.9090909090909
2024-03-12T11:40:03.831Z,97.9090909090909
2024-03-12T11:45:04.281Z,97.54545454545455
2024-03-12T11:50:05.111Z,97.18181818181819
2024-03-12T11:55:04.379Z,97.18181818181819
2024-03-12T12:00:04.412Z,97.54545454545455
2024-03-12T12:05:02.969Z,98.0909090909091
2024-03-12T12:10:04.194Z,98.72727272727273
2024-03-12T12:15:03.681Z,98.63636363636364
2024-03-12T12:20:03.408Z,98.54545454545455
2024-03-12T12:25:03.071Z,98.0909090909091
2024-03-12T12:30:04.349Z,98.18181818181819
2024-03-12T12:35:03.287Z,98.45454545454545
2024-03-12T12:40:04.427Z,98.72727272727273
2024-03-12T12:45:02.951Z,98.54545454545455
2024-03-12T12:50:02.411Z,98.18181818181819
2024-03-12T12:55:02.935Z,97.9090909090909
2024-03-12T13:00:02.446Z,97.18181818181819
2024-03-12T13:05:02.952Z,96.9090909090909
2024-03-12T13:10:02.439Z,97
2024-03-12T13:15:03.405Z,97.27272727272727
2024-03-12T13:20:02.941Z,97.45454545454545
2024-03-12T13:25:02.441Z,97.45454545454545
2024-03-12T13:30:03.450Z,97
2024-03-12T13:35:03.199Z,97.18181818181819
2024-03-12T13:40:02.712Z,97.0909090909091
2024-03-12T13:45:03.413Z,97
2024-03-12T13:50:03.092Z,96.9090909090909
2024-03-12T13:55:02.621Z,96.9090909090909
2024-03-12T14:00:02.726Z,96.72727272727273
2024-03-12T14:05:05.648Z,96.9090909090909
2024-03-12T14:10:02.574Z,96.72727272727273
2024-03-12T14:15:03.290Z,96.45454545454545
2024-03-12T14:20:02.866Z,96.0909090909091
2024-03-12T14:25:02.501Z,95.9090909090909
2024-03-12T14:30:03.165Z,95.9090909090909
2024-03-12T14:35:02.759Z,95.9090909090909
2024-03-12T14:40:03.446Z,95
2024-03-12T14:45:03.055Z,94.63636363636364
2024-03-12T14:50:02.572Z,94.27272727272727
2024-03-12T14:55:03.135Z,93.81818181818181
2024-03-12T15:00:05.567Z,94
2024-03-12T15:05:02.390Z,94
2024-03-12T15:10:03.100Z,93.63636363636364
2024-03-12T15:15:02.712Z,93.63636363636364
2024-03-12T15:20:03.279Z,93.81818181818181
2024-03-12T15:25:02.872Z,94.0909090909091
2024-03-12T15:30:02.659Z,94.27272727272727
2024-03-12T15:35:03.324Z,94.45454545454545
2024-03-12T15:40:02.933Z,94.63636363636364
2024-03-12T15:45:02.477Z,94.9090909090909
2024-03-12T15:50:03.005Z,95.0909090909091
2024-03-12T15:55:02.601Z,95.0909090909091
2024-03-12T16:00:03.196Z,95.27272727272727
2024-03-12T16:05:02.751Z,95
2024-03-12T16:10:03.655Z,95.27272727272727
2024-03-12T16:15:03.357Z,95.45454545454545
2024-03-12T16:20:03.156Z,95.63636363636364
2024-03-12T16:25:02.732Z,95.63636363636364
2024-03-12T16:30:03.260Z,95.63636363636364
2024-03-12T16:35:02.956Z,95.63636363636364
2024-03-12T16:40:02.681Z,95.54545454545455
2024-03-12T16:45:03.223Z,95.63636363636364
2024-03-12T16:50:02.766Z,95.72727272727273
2024-03-12T16:55:03.331Z,95.72727272727273
2024-03-12T17:00:02.823Z,95.72727272727273
2024-03-12T17:05:03.350Z,95.9090909090909
2024-03-12T17:10:03.021Z,95.9090909090909
2024-03-12T17:15:02.709Z,95.9090909090909
2024-03-12T17:20:03.323Z,95.72727272727273
2024-03-12T17:25:03.048Z,95.63636363636364
2024-03-12T17:30:03.230Z,95.27272727272727
2024-03-12T17:35:02.830Z,94.63636363636364
2024-03-12T17:40:02.402Z,94.27272727272727
2024-03-12T17:45:02.960Z,93.9090909090909
2024-03-12T17:50:02.419Z,93.63636363636364
2024-03-12T17:55:02.990Z,93.36363636363636
2024-03-12T18:00:04.586Z,93.0909090909091
2024-03-12T18:05:03.378Z,93.0909090909091
2024-03-12T18:10:03.082Z,93.36363636363636
2024-03-12T18:15:02.638Z,93.36363636363636
2024-03-12T18:20:03.290Z,93.54545454545455
2024-03-12T18:25:02.974Z,93.63636363636364
2024-03-12T18:30:02.478Z,93.81818181818181
2024-03-12T18:35:03.014Z,94
2024-03-12T18:40:03.747Z,94.0909090909091
2024-03-12T18:45:04.082Z,94.18181818181819
2024-03-12T18:50:02.788Z,94.27272727272727
2024-03-12T18:55:03.535Z,94.0909090909091
2024-03-12T19:00:04.301Z,93.72727272727273
2024-03-12T19:05:02.824Z,93.27272727272727
2024-03-12T19:10:03.340Z,92.72727272727272
2024-03-12T19:15:02.905Z,92.18181818181819
2024-03-12T19:20:02.512Z,91.54545454545455
2024-03-12T19:25:03.060Z,91.18181818181817
2024-03-12T19:30:02.554Z,90.54545454545456
2024-03-12T19:35:03.081Z,90.18181818181819
2024-03-12T19:40:02.850Z,89.81818181818181
2024-03-12T19:45:03.492Z,89.27272727272727
2024-03-12T19:50:03.295Z,88.81818181818181
2024-03-12T19:55:03.546Z,88.54545454545455
2024-03-12T20:00:03.780Z,88.36363636363637
2024-03-12T20:05:04.084Z,87.9090909090909
2024-03-12T20:10:02.815Z,87.63636363636364
2024-03-12T20:15:03.343Z,87.36363636363636
2024-03-12T20:20:02.808Z,87.18181818181819
2024-03-12T20:25:03.360Z,87.18181818181819
2024-03-12T20:30:02.813Z,87.36363636363636
2024-03-12T20:35:03.419Z,87.36363636363636
2024-03-12T20:40:03.041Z,87.63636363636364
2024-03-12T20:45:02.681Z,87.72727272727273
2024-03-12T20:50:03.206Z,87.72727272727273
2024-03-12T20:55:02.793Z,87.81818181818181
2024-03-12T21:00:03.301Z,88
2024-03-12T21:05:02.832Z,88.0909090909091
2024-03-12T21:10:03.432Z,88.27272727272728
2024-03-12T21:15:03.009Z,88.27272727272728
2024-03-12T21:20:03.151Z,87.9090909090909
2024-03-12T21:25:02.724Z,87.54545454545453
2024-03-12T21:30:03.340Z,87.18181818181819
2024-03-12T21:35:02.783Z,86.72727272727272
2024-03-12T21:40:03.342Z,86.54545454545455
2024-03-12T21:45:02.946Z,86.36363636363636
2024-03-12T21:50:02.375Z,86.00000000000001
2024-03-12T21:55:02.958Z,85.81818181818181
2024-03-12T22:00:02.393Z,85.54545454545455
2024-03-12T22:05:02.951Z,85.27272727272727
2024-03-12T22:10:02.566Z,85.18181818181819
2024-03-12T22:15:03.179Z,85.0909090909091
2024-03-12T22:20:03.203Z,84.72727272727273
2024-03-12T22:25:02.785Z,84.54545454545456
2024-03-12T22:30:03.286Z,84.18181818181819
2024-03-12T22:35:02.884Z,83.81818181818183
2024-03-12T22:40:02.558Z,83.63636363636363
2024-03-12T22:45:03.406Z,83.54545454545455
2024-03-12T22:50:03.266Z,83.45454545454545
2024-03-12T22:55:03.009Z,83.18181818181819
2024-03-12T23:00:02.707Z,83.18181818181819
2024-03-12T23:05:03.986Z,83.18181818181819
2024-03-12T23:10:02.648Z,82.72727272727273
2024-03-12T23:15:03.323Z,82.27272727272728
2024-03-12T23:20:03.318Z,82.36363636363636
2024-03-12T23:25:03.050Z,82.18181818181817
2024-03-12T23:30:03.086Z,82.18181818181817
2024-03-12T23:35:02.843Z,82.27272727272728
2024-03-12T23:40:02.613Z,82.18181818181817
2024-03-12T23:45:03.252Z,82.18181818181817
2024-03-12T23:50:02.980Z,81.54545454545456
2024-03-12T23:55:02.709Z,81.18181818181819
